createdAt,value
2023-05-14T00:00:32.389Z,23.55
2023-05-14T00:03:00.103Z,23.38
2023-05-14T00:05:27.737Z,26.02
2023-05-14T00:07:55.233Z,24.00
2023-05-14T00:10:23.014Z,23.25
2023-05-14T00:12:51.861Z,23.83
2023-05-14T00:15:19.382Z,27.45
2023-05-14T00:17:46.865Z,27.55
2023-05-14T00:20:14.660Z,24.20
2023-05-14T00:22:42.490Z,22.38
2023-05-14T00:25:10.155Z,29.08
2023-05-14T00:27:40.952Z,26.35
2023-05-14T00:30:08.873Z,25.35
2023-05-14T00:32:36.522Z,25.20
2023-05-14T00:35:04.689Z,30.20
2023-05-14T00:37:32.236Z,24.95
2023-05-14T00:39:59.746Z,26.98
2023-05-14T00:42:27.190Z,22.92
2023-05-14T00:44:54.830Z,22.95
2023-05-14T00:47:22.671Z,25.35
2023-05-14T00:49:50.314Z,26.25
2023-05-14T00:52:18.329Z,28.48
2023-05-14T00:54:48.299Z,25.30
2023-05-14T00:57:15.803Z,30.48
2023-05-14T00:59:43.412Z,25.13
2023-05-14T01:02:11.246Z,27.60
2023-05-14T01:04:39.761Z,29.45
2023-05-14T01:07:38.124Z,30.02
2023-05-14T01:10:13.768Z,24.77
2023-05-14T01:12:52.692Z,28.70
2023-05-14T01:15:32.334Z,31.92
2023-05-14T01:18:05.211Z,30.23
2023-05-14T01:20:32.858Z,26.10
2023-05-14T01:23:00.418Z,27.25
2023-05-14T01:25:28.617Z,27.58
2023-05-14T01:28:20.755Z,29.10
2023-05-14T01:31:02.826Z,28.60
2023-05-14T01:33:33.990Z,27.38
2023-05-14T01:36:02.263Z,26.27
2023-05-14T01:38:31.889Z,30.50
2023-05-14T01:41:01.065Z,29.05
2023-05-14T01:43:30.029Z,27.40
2023-05-14T01:45:57.573Z,29.23
2023-05-14T01:48:25.931Z,29.67
2023-05-14T01:50:53.447Z,30.65
2023-05-14T01:53:20.892Z,29.55
2023-05-14T01:55:48.359Z,28.85
2023-05-14T01:58:15.755Z,30.77
2023-05-14T02:00:44.262Z,29.48
2023-05-14T02:03:11.812Z,31.75
2023-05-14T02:05:39.471Z,29.17
2023-05-14T02:08:06.944Z,31.15
2023-05-14T02:10:34.368Z,32.90
2023-05-14T02:15:29.125Z,32.97
2023-05-14T02:17:56.658Z,32.75
2023-05-14T02:20:24.631Z,33.13
2023-05-14T02:22:52.190Z,32.03
2023-05-14T02:25:19.778Z,32.15
2023-05-14T02:27:47.514Z,34.78
2023-05-14T02:30:15.209Z,32.53
2023-05-14T02:32:43.183Z,31.73
2023-05-14T02:35:10.827Z,29.17
2023-05-14T02:37:38.249Z,34.55
2023-05-14T02:40:07.354Z,34.83
2023-05-14T02:42:35.726Z,35.22
2023-05-14T02:45:03.475Z,36.70
2023-05-14T02:47:30.938Z,31.38
2023-05-14T02:49:58.573Z,31.67
2023-05-14T02:52:26.049Z,36.13
2023-05-14T02:54:53.708Z,34.33
2023-05-14T02:57:21.392Z,33.33
2023-05-14T02:59:49.023Z,31.45
2023-05-14T03:02:17.008Z,28.25
2023-05-14T03:04:45.223Z,28.60
2023-05-14T03:07:12.675Z,38.75
2023-05-14T03:09:40.192Z,30.52
2023-05-14T03:14:35.092Z,33.10
2023-05-14T03:17:03.797Z,36.00
2023-05-14T03:19:31.375Z,32.67
2023-05-14T03:21:58.823Z,34.80
2023-05-14T03:24:26.298Z,35.78
2023-05-14T03:26:53.745Z,32.08
2023-05-14T03:29:21.327Z,32.25
2023-05-14T03:31:50.016Z,31.70
2023-05-14T03:34:17.612Z,34.08
2023-05-14T03:36:45.043Z,33.63
2023-05-14T03:39:15.488Z,32.83
2023-05-14T03:41:42.866Z,34.03
2023-05-14T03:44:10.417Z,33.72
2023-05-14T03:46:38.188Z,38.00
2023-05-14T03:49:07.137Z,35.17
2023-05-14T03:51:35.369Z,33.97
2023-05-14T03:54:05.822Z,34.55
2023-05-14T03:56:33.588Z,36.08
2023-05-14T03:59:01.333Z,34.90
2023-05-14T04:01:28.839Z,35.90
2023-05-14T04:03:58.624Z,34.55
2023-05-14T04:06:26.331Z,34.03
2023-05-14T04:08:53.870Z,32.38
2023-05-14T04:11:21.708Z,34.78
2023-05-14T04:13:50.123Z,34.00
2023-05-14T04:16:17.661Z,33.85
2023-05-14T04:18:45.215Z,39.47
2023-05-14T04:21:12.784Z,40.03
2023-05-14T04:23:40.345Z,34.75
2023-05-14T04:26:07.832Z,38.40
2023-05-14T04:28:35.558Z,34.13
2023-05-14T04:31:03.954Z,32.92
2023-05-14T04:33:31.371Z,38.80
2023-05-14T04:38:26.307Z,35.42
2023-05-14T04:40:53.751Z,36.20
2023-05-14T04:43:21.253Z,35.95
2023-05-14T04:45:48.721Z,39.17
2023-05-14T04:48:16.497Z,34.80
2023-05-14T04:50:44.403Z,36.00
2023-05-14T04:53:12.018Z,35.80
2023-05-14T04:55:39.445Z,38.70
2023-05-14T04:58:07.035Z,40.13
2023-05-14T05:00:34.614Z,36.30
2023-05-14T05:03:02.240Z,35.03
2023-05-14T05:05:29.747Z,39.13
2023-05-14T05:07:57.250Z,39.72
2023-05-14T05:10:24.976Z,34.35
2023-05-14T05:12:52.858Z,36.28
2023-05-14T05:15:20.307Z,37.55
2023-05-14T05:17:48.574Z,37.90
2023-05-14T05:20:16.087Z,35.63
2023-05-14T05:22:43.631Z,38.60
2023-05-14T05:25:12.979Z,38.63
2023-05-14T05:27:40.510Z,39.72
2023-05-14T05:30:08.698Z,42.28
2023-05-14T05:32:36.881Z,44.58
2023-05-14T05:35:04.616Z,39.05
2023-05-14T05:37:32.086Z,39.72
2023-05-14T05:39:59.496Z,40.22
2023-05-14T05:42:27.022Z,37.35
2023-05-14T05:44:54.522Z,38.75
2023-05-14T05:47:21.996Z,40.10
2023-05-14T05:49:49.836Z,37.83
2023-05-14T05:52:17.399Z,37.33
2023-05-14T05:54:44.850Z,37.60
2023-05-14T05:57:12.289Z,36.53
2023-05-14T06:02:07.247Z,38.17
2023-05-14T06:04:34.815Z,40.33
2023-05-14T06:07:02.427Z,36.97
2023-05-14T06:09:29.885Z,35.20
2023-05-14T06:11:57.384Z,39.75
2023-05-14T06:14:25.276Z,39.72
2023-05-14T06:16:52.920Z,40.35
2023-05-14T06:19:20.530Z,37.63
2023-05-14T06:21:48.053Z,38.72
2023-05-14T06:26:43.922Z,32.72
2023-05-14T06:29:11.343Z,36.80
2023-05-14T06:31:39.141Z,37.22
2023-05-14T06:34:06.557Z,39.92
2023-05-14T06:36:34.353Z,37.17
2023-05-14T06:39:01.807Z,31.48
2023-05-14T06:41:29.817Z,32.80
2023-05-14T06:43:57.762Z,36.63
2023-05-14T06:46:25.177Z,36.67
2023-05-14T06:51:19.768Z,36.08
2023-05-14T06:56:17.420Z,35.85
2023-05-14T06:58:44.872Z,34.03
2023-05-14T07:01:12.524Z,31.13
2023-05-14T07:03:40.045Z,33.25
2023-05-14T07:06:07.641Z,33.55
2023-05-14T07:08:35.067Z,31.42
2023-05-14T07:11:02.712Z,33.92
2023-05-14T07:13:30.218Z,31.75
2023-05-14T07:15:57.736Z,30.08
2023-05-14T07:18:25.243Z,31.83
2023-05-14T07:20:52.718Z,30.70
2023-05-14T07:23:20.212Z,29.10
2023-05-14T07:25:47.742Z,31.73
2023-05-14T07:28:16.172Z,32.05
2023-05-14T07:30:43.686Z,32.17
2023-05-14T07:33:11.309Z,32.85
2023-05-14T07:35:38.877Z,29.77
2023-05-14T07:38:06.395Z,28.23
2023-05-14T07:40:34.165Z,30.55
2023-05-14T07:43:01.785Z,27.35
2023-05-14T07:45:29.490Z,27.92
2023-05-14T07:47:57.022Z,27.88
2023-05-14T07:50:25.035Z,32.28
2023-05-14T07:52:52.562Z,27.88
2023-05-14T07:55:20.131Z,29.33
2023-05-14T07:57:47.676Z,28.92
2023-05-14T08:00:16.939Z,30.40
2023-05-14T08:02:44.883Z,27.30
2023-05-14T08:05:12.779Z,27.58
2023-05-14T08:07:40.234Z,26.83
2023-05-14T08:10:08.651Z,26.80
2023-05-14T08:12:36.109Z,25.35
2023-05-14T08:15:03.962Z,26.55
2023-05-14T08:17:31.485Z,25.70
2023-05-14T08:19:58.978Z,25.75
2023-05-14T08:22:26.533Z,26.98
2023-05-14T08:24:53.977Z,25.92
2023-05-14T08:27:21.635Z,26.20
2023-05-14T08:29:49.262Z,22.92
2023-05-14T08:32:23.264Z,26.27
2023-05-14T08:34:52.557Z,27.58
2023-05-14T08:37:20.200Z,25.17
2023-05-14T08:39:47.745Z,23.23
2023-05-14T08:42:18.345Z,25.30
2023-05-14T08:44:52.049Z,25.88
2023-05-14T08:47:22.208Z,22.40
2023-05-14T08:49:58.163Z,22.27
2023-05-14T08:52:26.070Z,23.40
2023-05-14T08:54:54.129Z,21.30
2023-05-14T08:57:24.962Z,24.52
2023-05-14T08:59:56.073Z,20.58
2023-05-14T09:02:31.419Z,26.30
2023-05-14T09:05:01.250Z,19.52
2023-05-14T09:07:28.882Z,20.10
2023-05-14T09:09:56.458Z,21.70
2023-05-14T09:12:23.880Z,21.80
2023-05-14T09:14:51.543Z,19.15
2023-05-14T09:17:19.843Z,20.45
2023-05-14T09:19:53.099Z,18.55
2023-05-14T09:22:21.129Z,21.35
2023-05-14T09:25:03.955Z,21.27
2023-05-14T09:27:33.380Z,20.95
2023-05-14T09:30:24.578Z,23.13
2023-05-14T09:33:03.615Z,20.10
2023-05-14T09:35:41.952Z,17.40
2023-05-14T09:38:17.341Z,17.55
2023-05-14T09:40:47.463Z,22.33
2023-05-14T09:43:15.643Z,17.75
2023-05-14T09:45:46.474Z,18.70
2023-05-14T09:48:14.364Z,18.70
2023-05-14T09:50:46.220Z,17.42
2023-05-14T09:53:14.654Z,19.23
2023-05-14T09:55:42.112Z,16.77
2023-05-14T09:58:09.606Z,19.25
2023-05-14T10:00:38.051Z,14.80
2023-05-14T10:03:08.265Z,14.30
2023-05-14T10:05:36.858Z,18.65
2023-05-14T10:08:10.207Z,20.40
2023-05-14T10:10:38.456Z,19.75
2023-05-14T10:13:13.465Z,15.00
2023-05-14T10:15:49.527Z,15.68
2023-05-14T10:18:21.739Z,12.00
2023-05-14T10:21:06.373Z,15.80
2023-05-14T10:23:38.207Z,12.93
2023-05-14T10:26:06.671Z,18.60
2023-05-14T10:28:34.942Z,17.33
2023-05-14T10:31:02.685Z,13.85
2023-05-14T10:33:30.231Z,17.75
2023-05-14T10:36:07.709Z,12.57
2023-05-14T10:38:37.280Z,12.25
2023-05-14T10:41:12.274Z,15.45
2023-05-14T10:43:42.264Z,17.80
2023-05-14T10:46:11.570Z,16.75
2023-05-14T10:48:42.712Z,17.70
2023-05-14T10:51:11.567Z,14.02
2023-05-14T10:53:43.174Z,18.67
2023-05-14T10:56:14.785Z,15.70
2023-05-14T10:58:46.508Z,16.75
2023-05-14T11:01:15.830Z,14.07
2023-05-14T11:03:45.440Z,15.13
2023-05-14T11:06:15.222Z,15.55
2023-05-14T11:08:43.024Z,16.27
2023-05-14T11:11:11.046Z,15.13
2023-05-14T11:13:38.711Z,15.07
2023-05-14T11:18:38.881Z,13.13
2023-05-14T11:21:06.663Z,15.07
2023-05-14T11:23:34.088Z,17.23
2023-05-14T11:26:01.748Z,14.73
2023-05-14T11:28:29.941Z,15.23
2023-05-14T11:30:57.589Z,16.40
2023-05-14T11:33:27.958Z,15.93
2023-05-14T11:35:55.465Z,11.63
2023-05-14T11:38:22.997Z,11.60
2023-05-14T11:40:55.361Z,13.35
2023-05-14T11:43:28.514Z,14.55
2023-05-14T11:45:56.694Z,16.65
2023-05-14T11:48:24.492Z,13.65
2023-05-14T11:50:53.206Z,16.13
2023-05-14T11:53:25.566Z,15.93
2023-05-14T11:55:57.989Z,17.02
2023-05-14T11:58:25.927Z,15.13
2023-05-14T12:00:55.678Z,15.63
2023-05-14T12:03:26.360Z,16.25
2023-05-14T12:06:02.338Z,14.98
2023-05-14T12:08:31.560Z,12.75
2023-05-14T12:11:00.704Z,16.42
2023-05-14T12:13:30.100Z,16.30
2023-05-14T12:16:02.535Z,13.80
2023-05-14T12:18:33.993Z,13.00
2023-05-14T12:21:08.042Z,15.00
2023-05-14T12:23:35.940Z,13.25
2023-05-14T12:26:06.537Z,16.30
2023-05-14T12:28:37.948Z,14.85
2023-05-14T12:31:06.542Z,16.75
2023-05-14T12:33:34.085Z,13.60
2023-05-14T12:36:13.971Z,16.05
2023-05-14T12:38:50.209Z,15.73
2023-05-14T12:41:18.477Z,13.02
2023-05-14T12:43:48.882Z,13.40
2023-05-14T12:46:17.277Z,18.08
2023-05-14T12:48:44.975Z,15.32
2023-05-14T12:51:12.763Z,15.32
2023-05-14T12:53:40.702Z,13.98
2023-05-14T12:56:08.228Z,9.55
2023-05-14T12:58:35.875Z,11.82
2023-05-14T13:01:03.659Z,15.63
2023-05-14T13:03:31.396Z,13.05
2023-05-14T13:05:59.476Z,11.82
2023-05-14T13:08:27.042Z,12.52
2023-05-14T13:10:55.154Z,12.77
2023-05-14T13:13:23.416Z,11.10
2023-05-14T13:15:51.186Z,12.95
2023-05-14T13:18:18.689Z,9.88
2023-05-14T13:20:49.811Z,10.43
2023-05-14T13:23:18.161Z,17.13
2023-05-14T13:25:47.952Z,12.10
2023-05-14T13:28:16.846Z,12.43
2023-05-14T13:31:04.966Z,11.68
2023-05-14T13:33:33.828Z,16.17
2023-05-14T13:36:01.351Z,11.95
2023-05-14T13:38:29.311Z,10.65
2023-05-14T13:41:02.678Z,16.90
2023-05-14T13:43:34.804Z,12.18
2023-05-14T13:46:04.292Z,15.27
2023-05-14T13:48:31.863Z,11.23
2023-05-14T13:50:59.560Z,16.00
2023-05-14T13:53:27.071Z,15.88
2023-05-14T13:55:58.597Z,14.52
2023-05-14T13:58:26.143Z,14.32
2023-05-14T14:00:53.914Z,9.95
2023-05-14T14:03:21.408Z,13.32
2023-05-14T14:05:48.660Z,12.40
2023-05-14T14:08:23.530Z,14.30
2023-05-14T14:10:53.117Z,11.63
2023-05-14T14:13:22.749Z,10.75
2023-05-14T14:15:51.313Z,10.13
2023-05-14T14:18:18.890Z,9.55
2023-05-14T14:20:46.459Z,7.45
2023-05-14T14:23:13.881Z,8.40
2023-05-14T14:25:41.539Z,8.77
2023-05-14T14:28:09.058Z,8.00
2023-05-14T14:30:36.666Z,11.73
2023-05-14T14:33:04.630Z,9.02
2023-05-14T14:35:33.422Z,9.65
2023-05-14T14:38:00.881Z,8.13
2023-05-14T14:40:28.367Z,9.90
2023-05-14T14:42:55.748Z,9.23
2023-05-14T14:45:23.653Z,10.25
2023-05-14T14:47:51.369Z,12.18
2023-05-14T14:50:18.865Z,10.50
2023-05-14T14:52:48.120Z,12.45
2023-05-14T14:55:15.743Z,11.93
2023-05-14T14:57:43.343Z,10.05
2023-05-14T15:00:11.604Z,10.05
2023-05-14T15:02:42.103Z,9.48
2023-05-14T15:05:09.975Z,10.35
2023-05-14T15:07:37.345Z,10.57
2023-05-14T15:10:06.959Z,14.00
2023-05-14T15:12:34.510Z,13.10
2023-05-14T15:15:01.928Z,12.43
2023-05-14T15:17:29.393Z,14.18
2023-05-14T15:19:56.859Z,14.85
2023-05-14T15:22:24.293Z,13.07
2023-05-14T15:24:52.325Z,15.68
2023-05-14T15:27:19.803Z,12.23
2023-05-14T15:29:47.425Z,14.30
2023-05-14T15:32:14.873Z,12.68
2023-05-14T15:34:42.435Z,9.73
2023-05-14T15:37:09.810Z,11.02
2023-05-14T15:39:37.310Z,12.68
2023-05-14T15:42:05.037Z,12.18
2023-05-14T15:44:32.645Z,12.07
2023-05-14T15:47:00.062Z,11.57
2023-05-14T15:49:27.513Z,12.60
2023-05-14T15:51:55.264Z,9.27
2023-05-14T15:54:22.765Z,7.25
2023-05-14T15:56:50.952Z,10.07
2023-05-14T15:59:19.600Z,8.48
2023-05-14T16:01:47.284Z,13.07
2023-05-14T16:04:15.095Z,9.40
2023-05-14T16:06:44.922Z,8.77
2023-05-14T16:09:12.416Z,10.05
2023-05-14T16:11:39.867Z,8.80
2023-05-14T16:14:07.565Z,9.00
2023-05-14T16:16:35.295Z,12.68
2023-05-14T16:19:02.829Z,8.35
2023-05-14T16:21:30.506Z,9.65
2023-05-14T16:23:58.108Z,11.35
2023-05-14T16:26:26.509Z,8.50
2023-05-14T16:28:53.956Z,8.25
2023-05-14T16:31:21.509Z,9.75
2023-05-14T16:33:48.949Z,7.43
2023-05-14T16:36:16.829Z,10.02
2023-05-14T16:39:05.145Z,11.05
2023-05-14T16:41:31.844Z,11.98
2023-05-14T16:43:59.412Z,7.25
2023-05-14T16:46:28.683Z,13.95
2023-05-14T16:48:56.338Z,8.13
2023-05-14T16:51:23.826Z,11.60
2023-05-14T16:53:52.055Z,10.50
2023-05-14T16:56:20.028Z,11.15
2023-05-14T16:58:47.450Z,13.05
2023-05-14T17:01:15.230Z,10.40
2023-05-14T17:03:43.593Z,9.07
2023-05-14T17:06:11.444Z,13.07
2023-05-14T17:08:39.007Z,11.25
2023-05-14T17:11:06.623Z,10.60
2023-05-14T17:13:34.211Z,10.85
2023-05-14T17:16:02.110Z,11.63
2023-05-14T17:18:29.882Z,11.82
2023-05-14T17:20:57.461Z,15.15
2023-05-14T17:23:24.946Z,12.90
2023-05-14T17:25:52.566Z,13.60
2023-05-14T17:28:20.720Z,14.10
2023-05-14T17:30:48.270Z,13.52
2023-05-14T17:33:15.895Z,10.63
2023-05-14T17:35:45.861Z,8.82
2023-05-14T17:38:13.705Z,9.77
2023-05-14T17:40:41.228Z,10.35
2023-05-14T17:43:08.702Z,10.43
2023-05-14T17:45:46.242Z,10.63
2023-05-14T17:48:20.570Z,10.23
2023-05-14T17:50:48.163Z,7.70
2023-05-14T17:53:15.707Z,8.93
2023-05-14T17:55:45.966Z,10.63
2023-05-14T17:58:15.540Z,12.98
2023-05-14T18:00:43.832Z,15.05
2023-05-14T18:03:11.964Z,14.10
2023-05-14T18:05:39.644Z,13.48
2023-05-14T18:08:07.169Z,15.05
2023-05-14T18:10:34.680Z,17.88
2023-05-14T18:13:02.215Z,14.63
2023-05-14T18:15:31.578Z,16.60
2023-05-14T18:18:01.591Z,14.27
2023-05-14T18:20:28.987Z,18.05
2023-05-14T18:22:56.484Z,15.10
2023-05-14T18:25:24.374Z,16.38
2023-05-14T18:27:52.457Z,20.42
2023-05-14T18:30:20.045Z,18.38
2023-05-14T18:32:47.715Z,16.02
2023-05-14T18:35:15.303Z,17.77
2023-05-14T18:37:42.869Z,18.75
2023-05-14T18:40:11.397Z,16.52
2023-05-14T18:42:38.844Z,18.50
2023-05-14T18:45:06.570Z,18.30
2023-05-14T18:47:34.906Z,21.92
2023-05-14T18:50:02.510Z,22.33
2023-05-14T18:52:30.127Z,16.23
2023-05-14T18:54:57.494Z,23.27
2023-05-14T18:57:27.430Z,20.90
2023-05-14T18:59:55.523Z,19.38
2023-05-14T19:02:23.052Z,19.38
2023-05-14T19:04:52.282Z,20.13
2023-05-14T19:07:21.087Z,18.48
2023-05-14T19:09:49.000Z,19.73
2023-05-14T19:12:16.521Z,17.27
2023-05-14T19:14:43.884Z,18.70
2023-05-14T19:17:11.591Z,23.60
2023-05-14T19:19:39.526Z,22.33
2023-05-14T19:22:07.415Z,22.00
2023-05-14T19:24:34.815Z,18.90
2023-05-14T19:27:02.370Z,19.65
2023-05-14T19:29:32.331Z,23.25
2023-05-14T19:31:59.814Z,22.10
2023-05-14T19:34:27.375Z,22.55
2023-05-14T19:36:55.426Z,25.75
2023-05-14T19:39:22.854Z,21.30
2023-05-14T19:41:50.475Z,25.48
2023-05-14T19:44:17.932Z,26.30
2023-05-14T19:46:45.958Z,27.10
2023-05-14T19:49:13.668Z,27.27
2023-05-14T19:51:41.218Z,24.45
2023-05-14T19:54:08.702Z,25.35
2023-05-14T19:56:36.661Z,27.27
2023-05-14T19:59:04.101Z,28.83
2023-05-14T20:01:32.489Z,26.40
2023-05-14T20:04:00.226Z,25.25
2023-05-14T20:06:27.904Z,27.65
2023-05-14T20:08:55.472Z,27.92
2023-05-14T20:11:23.001Z,28.13
2023-05-14T20:13:50.459Z,27.98
2023-05-14T20:16:18.817Z,29.02
2023-05-14T20:18:46.395Z,31.42
2023-05-14T20:21:13.914Z,29.55
2023-05-14T20:23:41.392Z,28.02
2023-05-14T20:26:08.984Z,27.38
2023-05-14T20:28:36.467Z,31.67
2023-05-14T20:31:04.277Z,30.17
2023-05-14T20:33:31.814Z,32.65
2023-05-14T20:35:59.428Z,28.77
2023-05-14T20:38:29.530Z,32.83
2023-05-14T20:40:57.639Z,32.58
2023-05-14T20:43:27.718Z,32.17
2023-05-14T20:45:57.376Z,31.60
2023-05-14T20:48:25.138Z,32.65
2023-05-14T20:50:52.713Z,32.67
2023-05-14T20:53:20.101Z,32.10
2023-05-14T20:55:47.610Z,30.02
2023-05-14T20:58:14.960Z,32.10
2023-05-14T21:00:43.511Z,35.90
2023-05-14T21:03:11.076Z,31.85
2023-05-14T21:05:41.534Z,31.25
2023-05-14T21:08:09.042Z,29.25
2023-05-14T21:10:36.759Z,29.65
2023-05-14T21:13:04.246Z,31.55
2023-05-14T21:15:32.787Z,29.17
2023-05-14T21:18:01.649Z,32.65
2023-05-14T21:20:29.155Z,31.60
2023-05-14T21:22:56.928Z,30.35
2023-05-14T21:25:24.700Z,31.33
2023-05-14T21:27:52.216Z,30.05
2023-05-14T21:30:19.789Z,30.45
2023-05-14T21:32:47.222Z,31.92
2023-05-14T21:35:14.941Z,29.38
2023-05-14T21:37:42.540Z,32.75
2023-05-14T21:40:12.608Z,30.15
2023-05-14T21:42:40.861Z,29.17
2023-05-14T21:45:08.801Z,27.42
2023-05-14T21:47:37.282Z,30.73
2023-05-14T21:50:05.884Z,29.17
2023-05-14T21:52:33.706Z,27.92
2023-05-14T21:55:01.170Z,29.73
2023-05-14T21:57:29.245Z,25.75
2023-05-14T21:59:58.412Z,25.17
2023-05-14T22:02:26.525Z,24.70
2023-05-14T22:04:54.247Z,29.60
2023-05-14T22:07:21.654Z,24.90
2023-05-14T22:09:50.169Z,23.50
2023-05-14T22:12:17.631Z,23.80
2023-05-14T22:14:46.865Z,24.15
2023-05-14T22:17:14.288Z,25.33
2023-05-14T22:19:41.827Z,23.23
2023-05-14T22:22:09.272Z,21.90
2023-05-14T22:24:36.781Z,21.02
2023-05-14T22:27:04.422Z,21.35
2023-05-14T22:29:32.026Z,19.40
2023-05-14T22:31:59.637Z,20.50
2023-05-14T22:34:27.127Z,21.30
2023-05-14T22:36:54.635Z,20.55
2023-05-14T22:39:22.074Z,20.70
2023-05-14T22:44:23.359Z,21.17
2023-05-14T22:46:51.070Z,20.80
2023-05-14T22:49:18.650Z,19.17
2023-05-14T22:51:46.066Z,17.13
2023-05-14T22:54:13.634Z,17.60
2023-05-14T22:56:41.068Z,17.00
2023-05-14T22:59:08.644Z,17.05
2023-05-14T23:01:36.246Z,17.88
2023-05-14T23:04:03.918Z,17.35
2023-05-14T23:06:32.011Z,17.13
2023-05-14T23:08:59.463Z,19.20
2023-05-14T23:13:54.103Z,16.55
2023-05-14T23:18:49.199Z,17.13
2023-05-14T23:21:16.727Z,17.85
2023-05-14T23:23:45.548Z,16.98
2023-05-14T23:26:13.024Z,14.68
2023-05-14T23:28:40.537Z,14.80
2023-05-14T23:31:07.987Z,13.30
2023-05-14T23:33:36.073Z,13.82
2023-05-14T23:36:03.936Z,12.85
2023-05-14T23:38:31.815Z,15.73
2023-05-14T23:40:59.196Z,12.98
2023-05-14T23:43:26.649Z,15.77
2023-05-14T23:48:21.532Z,13.43
2023-05-14T23:50:48.903Z,13.68
2023-05-14T23:53:17.881Z,11.48
2023-05-14T23:55:45.504Z,16.50
2023-05-14T23:58:13.121Z,12.80
